sensor_id;sensor_type;location;lat;lon;timestamp;P1;durP1;ratioP1;P2;durP2;ratioP2
12135;SDS011;6131;56.420;15.548;2024-03-23T00:54:22;14.90;;;2.57;;
12135;SDS011;6131;56.420;15.548;2024-03-23T00:56:48;14.37;;;2.77;;
12135;SDS011;6131;56.420;15.548;2024-03-23T00:59:13;15.17;;;3.23;;
12135;SDS011;6131;56.420;15.548;2024-03-23T01:01:39;15.50;;;2.90;;
12135;SDS011;6131;56.420;15.548;2024-03-23T01:04:05;11.43;;;2.80;;
12135;SDS011;6131;56.420;15.548;2024-03-23T01:06:31;16.57;;;2.80;;
12135;SDS011;6131;56.420;15.548;2024-03-23T01:08:57;15.87;;;2.73;;
12135;SDS011;6131;56.420;15.548;2024-03-23T01:11:23;13.67;;;2.30;;
12135;SDS011;6131;56.420;15.548;2024-03-23T01:13:49;10.87;;;2.47;;
12135;SDS011;6131;56.420;15.548;2024-03-23T01:16:15;14.70;;;2.97;;
12135;SDS011;6131;56.420;15.548;2024-03-23T01:18:41;18.37;;;3.30;;
12135;SDS011;6131;56.420;15.548;2024-03-23T01:21:07;16.47;;;2.53;;
12135;SDS011;6131;56.420;15.548;2024-03-23T01:23:33;14.40;;;2.70;;
12135;SDS011;6131;56.420;15.548;2024-03-23T01:25:59;18.20;;;2.87;;
12135;SDS011;6131;56.420;15.548;2024-03-23T01:28:25;16.57;;;2.40;;
12135;SDS011;6131;56.420;15.548;2024-03-23T01:30:51;18.00;;;2.87;;
12135;SDS011;6131;56.420;15.548;2024-03-23T01:33:17;12.57;;;2.80;;
12135;SDS011;6131;56.420;15.548;2024-03-23T01:35:43;11.43;;;2.27;;
12135;SDS011;6131;56.420;15.548;2024-03-23T01:38:09;15.97;;;2.43;;
12135;SDS011;6131;56.420;15.548;2024-03-23T01:40:35;17.73;;;3.60;;
12135;SDS011;6131;56.420;15.548;2024-03-23T01:43:04;12.70;;;2.40;;
12135;SDS011;6131;56.420;15.548;2024-03-23T01:45:31;11.57;;;3.10;;
12135;SDS011;6131;56.420;15.548;2024-03-23T01:47:57;12.97;;;2.47;;
12135;SDS011;6131;56.420;15.548;2024-03-23T01:50:24;14.20;;;2.43;;
12135;SDS011;6131;56.420;15.548;2024-03-23T01:52:50;14.47;;;2.47;;
12135;SDS011;6131;56.420;15.548;2024-03-23T01:55:16;8.77;;;1.90;;
12135;SDS011;6131;56.420;15.548;2024-03-23T01:57:42;16.77;;;3.10;;
12135;SDS011;6131;56.420;15.548;2024-03-23T02:00:08;13.63;;;2.73;;
12135;SDS011;6131;56.420;15.548;2024-03-23T02:02:40;16.47;;;2.90;;
12135;SDS011;6131;56.420;15.548;2024-03-23T02:05:06;15.27;;;2.60;;
12135;SDS011;6131;56.420;15.548;2024-03-23T02:07:33;16.20;;;2.40;;
12135;SDS011;6131;56.420;15.548;2024-03-23T02:09:59;13.83;;;2.07;;
12135;SDS011;6131;56.420;15.548;2024-03-23T02:12:25;23.37;;;2.97;;
12135;SDS011;6131;56.420;15.548;2024-03-23T02:14:51;13.80;;;2.50;;
12135;SDS011;6131;56.420;15.548;2024-03-23T02:17:17;7.27;;;2.17;;
12135;SDS011;6131;56.420;15.548;2024-03-23T02:19:43;17.10;;;2.87;;
12135;SDS011;6131;56.420;15.548;2024-03-23T02:22:11;12.50;;;2.83;;
12135;SDS011;6131;56.420;15.548;2024-03-23T02:24:37;11.23;;;2.40;;
12135;SDS011;6131;56.420;15.548;2024-03-23T02:27:03;19.47;;;3.10;;
12135;SDS011;6131;56.420;15.548;2024-03-23T02:29:29;12.47;;;2.33;;
12135;SDS011;6131;56.420;15.548;2024-03-23T02:31:55;12.07;;;2.40;;
12135;SDS011;6131;56.420;15.548;2024-03-23T02:34:21;11.47;;;2.20;;
12135;SDS011;6131;56.420;15.548;2024-03-23T02:36:47;18.77;;;2.87;;
12135;SDS011;6131;56.420;15.548;2024-03-23T02:39:14;13.97;;;2.57;;
12135;SDS011;6131;56.420;15.548;2024-03-23T02:41:40;18.93;;;2.53;;
12135;SDS011;6131;56.420;15.548;2024-03-23T02:44:06;15.63;;;2.67;;
12135;SDS011;6131;56.420;15.548;2024-03-23T02:46:32;12.50;;;2.63;;
12135;SDS011;6131;56.420;15.548;2024-03-23T02:48:58;16.90;;;2.40;;
12135;SDS011;6131;56.420;15.548;2024-03-23T02:51:24;15.83;;;2.87;;
12135;SDS011;6131;56.420;15.548;2024-03-23T02:53:50;13.10;;;3.20;;
12135;SDS011;6131;56.420;15.548;2024-03-23T02:56:16;15.30;;;2.87;;
12135;SDS011;6131;56.420;15.548;2024-03-23T02:58:42;13.70;;;2.63;;
12135;SDS011;6131;56.420;15.548;2024-03-23T03:01:08;18.57;;;3.00;;
12135;SDS011;6131;56.420;15.548;2024-03-23T03:03:34;13.43;;;1.97;;
12135;SDS011;6131;56.420;15.548;2024-03-23T03:06:00;11.63;;;2.17;;
12135;SDS011;6131;56.420;15.548;2024-03-23T03:08:26;20.90;;;2.47;;
12135;SDS011;6131;56.420;15.548;2024-03-23T03:10:52;13.93;;;2.60;;
12135;SDS011;6131;56.420;15.548;2024-03-23T03:13:18;12.93;;;2.70;;
12135;SDS011;6131;56.420;15.548;2024-03-23T03:15:44;15.77;;;2.67;;
12135;SDS011;6131;56.420;15.548;2024-03-23T03:18:10;16.50;;;2.40;;
12135;SDS011;6131;56.420;15.548;2024-03-23T03:20:39;13.03;;;2.10;;
12135;SDS011;6131;56.420;15.548;2024-03-23T03:23:06;14.67;;;2.73;;
12135;SDS011;6131;56.420;15.548;2024-03-23T03:25:32;13.93;;;2.80;;
12135;SDS011;6131;56.420;15.548;2024-03-23T03:27:58;11.03;;;2.40;;
12135;SDS011;6131;56.420;15.548;2024-03-23T03:30:24;17.47;;;3.13;;
12135;SDS011;6131;56.420;15.548;2024-03-23T03:32:52;10.77;;;2.93;;
12135;SDS011;6131;56.420;15.548;2024-03-23T03:35:19;16.90;;;2.67;;
12135;SDS011;6131;56.420;15.548;2024-03-23T03:37:45;8.40;;;2.50;;
12135;SDS011;6131;56.420;15.548;2024-03-23T03:40:11;10.60;;;2.47;;
12135;SDS011;6131;56.420;15.548;2024-03-23T03:42:37;16.40;;;2.80;;
12135;SDS011;6131;56.420;15.548;2024-03-23T03:45:04;11.27;;;2.67;;
12135;SDS011;6131;56.420;15.548;2024-03-23T03:47:30;10.67;;;2.60;;
12135;SDS011;6131;56.420;15.548;2024-03-23T03:49:56;19.07;;;3.67;;
12135;SDS011;6131;56.420;15.548;2024-03-23T03:52:22;17.50;;;2.77;;
12135;SDS011;6131;56.420;15.548;2024-03-23T03:54:48;14.57;;;2.87;;
12135;SDS011;6131;56.420;15.548;2024-03-23T03:57:14;15.70;;;2.90;;
12135;SDS011;6131;56.420;15.548;2024-03-23T03:59:40;14.93;;;2.43;;
12135;SDS011;6131;56.420;15.548;2024-03-23T04:02:06;15.90;;;2.80;;
12135;SDS011;6131;56.420;15.548;2024-03-23T04:04:32;16.20;;;2.73;;
12135;SDS011;6131;56.420;15.548;2024-03-23T04:06:59;14.77;;;2.60;;
12135;SDS011;6131;56.420;15.548;2024-03-23T04:09:25;13.47;;;2.77;;
12135;SDS011;6131;56.420;15.548;2024-03-23T04:11:51;20.10;;;3.13;;
12135;SDS011;6131;56.420;15.548;2024-03-23T04:14:17;13.07;;;2.67;;
12135;SDS011;6131;56.420;15.548;2024-03-23T04:16:43;15.03;;;3.23;;
12135;SDS011;6131;56.420;15.548;2024-03-23T04:19:09;12.67;;;2.87;;
12135;SDS011;6131;56.420;15.548;2024-03-23T04:21:35;15.80;;;2.93;;
12135;SDS011;6131;56.420;15.548;2024-03-23T04:24:01;21.33;;;3.43;;
12135;SDS011;6131;56.420;15.548;2024-03-23T04:26:27;8.87;;;2.40;;
12135;SDS011;6131;56.420;15.548;2024-03-23T04:28:53;12.27;;;2.67;;
12135;SDS011;6131;56.420;15.548;2024-03-23T04:31:19;18.20;;;2.80;;
12135;SDS011;6131;56.420;15.548;2024-03-23T04:33:45;18.30;;;2.90;;
12135;SDS011;6131;56.420;15.548;2024-03-23T04:36:11;15.40;;;3.17;;
12135;SDS011;6131;56.420;15.548;2024-03-23T04:38:37;21.03;;;2.90;;
12135;SDS011;6131;56.420;15.548;2024-03-23T04:41:03;20.33;;;3.27;;
12135;SDS011;6131;56.420;15.548;2024-03-23T04:43:29;15.47;;;3.10;;
12135;SDS011;6131;56.420;15.548;2024-03-23T04:45:55;21.13;;;3.30;;
12135;SDS011;6131;56.420;15.548;2024-03-23T04:48:22;19.07;;;3.80;;
12135;SDS011;6131;56.420;15.548;2024-03-23T04:50:57;19.10;;;2.90;;
12135;SDS011;6131;56.420;15.548;2024-03-23T04:53:23;17.73;;;2.93;;
12135;SDS011;6131;56.420;15.548;2024-03-23T04:55:53;21.07;;;3.23;;
12135;SDS011;6131;56.420;15.548;2024-03-23T04:58:19;17.70;;;2.63;;
12135;SDS011;6131;56.420;15.548;2024-03-23T05:00:45;17.47;;;2.70;;
12135;SDS011;6131;56.420;15.548;2024-03-23T05:03:11;15.30;;;3.20;;
12135;SDS011;6131;56.420;15.548;2024-03-23T05:05:37;17.10;;;2.87;;
12135;SDS011;6131;56.420;15.548;2024-03-23T05:08:04;15.20;;;3.67;;
12135;SDS011;6131;56.420;15.548;2024-03-23T05:10:30;25.53;;;2.83;;
12135;SDS011;6131;56.420;15.548;2024-03-23T05:12:57;11.77;;;2.60;;
12135;SDS011;6131;56.420;15.548;2024-03-23T05:15:23;14.57;;;2.30;;
12135;SDS011;6131;56.420;15.548;2024-03-23T05:17:49;12.03;;;2.43;;
12135;SDS011;6131;56.420;15.548;2024-03-23T05:20:15;21.37;;;3.43;;
12135;SDS011;6131;56.420;15.548;2024-03-23T05:22:41;17.80;;;3.47;;
12135;SDS011;6131;56.420;15.548;2024-03-23T05:25:07;18.97;;;2.57;;
12135;SDS011;6131;56.420;15.548;2024-03-23T05:27:34;16.37;;;2.87;;
12135;SDS011;6131;56.420;15.548;2024-03-23T05:30:01;15.67;;;2.60;;
12135;SDS011;6131;56.420;15.548;2024-03-23T05:32:28;13.67;;;2.57;;
12135;SDS011;6131;56.420;15.548;2024-03-23T05:34:54;17.07;;;2.83;;
12135;SDS011;6131;56.420;15.548;2024-03-23T05:37:22;19.40;;;3.53;;
12135;SDS011;6131;56.420;15.548;2024-03-23T05:39:48;16.33;;;2.60;;
12135;SDS011;6131;56.420;15.548;2024-03-23T05:42:15;18.87;;;3.17;;
12135;SDS011;6131;56.420;15.548;2024-03-23T05:44:42;21.67;;;3.10;;
12135;SDS011;6131;56.420;15.548;2024-03-23T05:47:09;18.17;;;2.70;;
12135;SDS011;6131;56.420;15.548;2024-03-23T05:49:35;16.97;;;3.27;;
12135;SDS011;6131;56.420;15.548;2024-03-23T05:52:01;15.27;;;2.97;;
12135;SDS011;6131;56.420;15.548;2024-03-23T05:54:29;24.70;;;3.57;;
12135;SDS011;6131;56.420;15.548;2024-03-23T05:56:55;23.93;;;3.53;;
12135;SDS011;6131;56.420;15.548;2024-03-23T05:59:21;17.17;;;2.80;;
12135;SDS011;6131;56.420;15.548;2024-03-23T06:01:47;19.80;;;3.23;;
12135;SDS011;6131;56.420;15.548;2024-03-23T06:04:13;20.37;;;3.40;;
12135;SDS011;6131;56.420;15.548;2024-03-23T06:06:39;21.30;;;3.30;;
12135;SDS011;6131;56.420;15.548;2024-03-23T06:09:05;15.60;;;2.90;;
12135;SDS011;6131;56.420;15.548;2024-03-23T06:11:31;18.10;;;2.60;;
12135;SDS011;6131;56.420;15.548;2024-03-23T06:13:57;17.73;;;2.60;;
12135;SDS011;6131;56.420;15.548;2024-03-23T06:16:23;16.00;;;4.47;;
12135;SDS011;6131;56.420;15.548;2024-03-23T06:18:52;18.07;;;3.00;;
12135;SDS011;6131;56.420;15.548;2024-03-23T06:21:19;13.57;;;2.40;;
12135;SDS011;6131;56.420;15.548;2024-03-23T06:23:45;20.63;;;3.30;;
12135;SDS011;6131;56.420;15.548;2024-03-23T06:26:18;20.27;;;3.27;;
12135;SDS011;6131;56.420;15.548;2024-03-23T06:28:44;15.03;;;3.30;;
12135;SDS011;6131;56.420;15.548;2024-03-23T06:31:10;20.00;;;3.23;;
12135;SDS011;6131;56.420;15.548;2024-03-23T06:33:36;17.20;;;3.13;;
12135;SDS011;6131;56.420;15.548;2024-03-23T06:36:03;19.83;;;3.97;;
12135;SDS011;6131;56.420;15.548;2024-03-23T06:38:29;20.10;;;3.33;;
12135;SDS011;6131;56.420;15.548;2024-03-23T06:40:55;20.80;;;4.27;;
12135;SDS011;6131;56.420;15.548;2024-03-23T06:43:21;19.30;;;3.40;;
12135;SDS011;6131;56.420;15.548;2024-03-23T06:45:53;22.10;;;3.17;;
12135;SDS011;6131;56.420;15.548;2024-03-23T06:48:19;19.73;;;3.30;;
12135;SDS011;6131;56.420;15.548;2024-03-23T06:50:46;17.37;;;3.50;;
12135;SDS011;6131;56.420;15.548;2024-03-23T06:53:15;17.90;;;3.17;;
12135;SDS011;6131;56.420;15.548;2024-03-23T06:55:41;15.00;;;3.30;;
12135;SDS011;6131;56.420;15.548;2024-03-23T06:58:07;17.53;;;3.20;;
12135;SDS011;6131;56.420;15.548;2024-03-23T07:00:35;14.17;;;3.13;;
12135;SDS011;6131;56.420;15.548;2024-03-23T07:03:01;22.13;;;2.73;;
12135;SDS011;6131;56.420;15.548;2024-03-23T07:05:28;18.63;;;3.23;;
12135;SDS011;6131;56.420;15.548;2024-03-23T07:07:54;22.77;;;3.33;;
12135;SDS011;6131;56.420;15.548;2024-03-23T07:10:20;17.37;;;2.73;;
12135;SDS011;6131;56.420;15.548;2024-03-23T07:12:46;20.73;;;3.17;;
12135;SDS011;6131;56.420;15.548;2024-03-23T07:15:12;15.87;;;3.00;;
12135;SDS011;6131;56.420;15.548;2024-03-23T07:17:38;19.50;;;3.00;;
12135;SDS011;6131;56.420;15.548;2024-03-23T07:20:04;15.90;;;3.07;;
12135;SDS011;6131;56.420;15.548;2024-03-23T07:22:35;14.93;;;2.80;;
12135;SDS011;6131;56.420;15.548;2024-03-23T07:25:01;13.77;;;3.63;;
12135;SDS011;6131;56.420;15.548;2024-03-23T07:27:28;14.73;;;2.50;;
12135;SDS011;6131;56.420;15.548;2024-03-23T07:29:54;21.00;;;3.40;;
12135;SDS011;6131;56.420;15.548;2024-03-23T07:32:20;11.20;;;2.57;;
12135;SDS011;6131;56.420;15.548;2024-03-23T07:34:46;12.17;;;3.13;;
12135;SDS011;6131;56.420;15.548;2024-03-23T07:37:12;14.73;;;3.30;;
12135;SDS011;6131;56.420;15.548;2024-03-23T07:39:39;15.13;;;2.70;;
12135;SDS011;6131;56.420;15.548;2024-03-23T07:42:05;12.20;;;2.60;;
12135;SDS011;6131;56.420;15.548;2024-03-23T07:44:31;16.03;;;2.93;;
12135;SDS011;6131;56.420;15.548;2024-03-23T07:46:58;16.13;;;3.60;;
12135;SDS011;6131;56.420;15.548;2024-03-23T07:49:24;14.00;;;2.90;;
12135;SDS011;6131;56.420;15.548;2024-03-23T07:51:50;18.63;;;3.27;;
12135;SDS011;6131;56.420;15.548;2024-03-23T07:54:16;11.57;;;3.30;;
12135;SDS011;6131;56.420;15.548;2024-03-23T07:56:42;13.27;;;2.50;;
12135;SDS011;6131;56.420;15.548;2024-03-23T07:59:08;17.77;;;2.90;;
12135;SDS011;6131;56.420;15.548;2024-03-23T08:01:34;17.67;;;2.70;;
12135;SDS011;6131;56.420;15.548;2024-03-23T08:04:00;17.33;;;3.50;;
12135;SDS011;6131;56.420;15.548;2024-03-23T08:06:26;16.47;;;3.17;;
12135;SDS011;6131;56.420;15.548;2024-03-23T08:08:54;16.63;;;2.83;;
12135;SDS011;6131;56.420;15.548;2024-03-23T08:11:26;14.43;;;2.70;;
12135;SDS011;6131;56.420;15.548;2024-03-23T08:13:52;13.10;;;2.50;;
12135;SDS011;6131;56.420;15.548;2024-03-23T08:16:18;19.10;;;2.73;;
12135;SDS011;6131;56.420;15.548;2024-03-23T08:18:44;17.87;;;2.87;;
12135;SDS011;6131;56.420;15.548;2024-03-23T08:21:10;12.83;;;2.80;;
12135;SDS011;6131;56.420;15.548;2024-03-23T08:23:36;13.83;;;2.57;;
12135;SDS011;6131;56.420;15.548;2024-03-23T08:26:06;13.37;;;3.23;;
12135;SDS011;6131;56.420;15.548;2024-03-23T08:28:33;15.97;;;2.47;;
12135;SDS011;6131;56.420;15.548;2024-03-23T08:31:03;14.43;;;3.17;;
12135;SDS011;6131;56.420;15.548;2024-03-23T08:33:30;9.43;;;2.20;;
12135;SDS011;6131;56.420;15.548;2024-03-23T08:35:56;12.00;;;2.43;;
12135;SDS011;6131;56.420;15.548;2024-03-23T08:38:23;12.30;;;2.77;;
12135;SDS011;6131;56.420;15.548;2024-03-23T08:40:59;11.70;;;2.50;;
12135;SDS011;6131;56.420;15.548;2024-03-23T08:43:26;10.00;;;2.40;;
12135;SDS011;6131;56.420;15.548;2024-03-23T08:45:52;21.70;;;2.90;;
12135;SDS011;6131;56.420;15.548;2024-03-23T08:48:19;14.17;;;2.60;;
12135;SDS011;6131;56.420;15.548;2024-03-23T08:50:58;11.77;;;2.43;;
12135;SDS011;6131;56.420;15.548;2024-03-23T08:53:24;9.93;;;2.20;;
12135;SDS011;6131;56.420;15.548;2024-03-23T08:55:53;12.13;;;2.60;;
12135;SDS011;6131;56.420;15.548;2024-03-23T08:58:19;10.30;;;2.30;;
12135;SDS011;6131;56.420;15.548;2024-03-23T09:00:45;14.40;;;2.33;;
12135;SDS011;6131;56.420;15.548;2024-03-23T09:03:12;9.03;;;2.33;;
12135;SDS011;6131;56.420;15.548;2024-03-23T09:05:41;9.27;;;2.43;;
12135;SDS011;6131;56.420;15.548;2024-03-23T09:08:07;13.87;;;2.57;;
12135;SDS011;6131;56.420;15.548;2024-03-23T09:10:39;10.40;;;2.10;;
12135;SDS011;6131;56.420;15.548;2024-03-23T09:13:06;13.77;;;2.60;;
12135;SDS011;6131;56.420;15.548;2024-03-23T09:15:35;10.93;;;2.13;;
12135;SDS011;6131;56.420;15.548;2024-03-23T09:18:02;10.97;;;2.47;;
12135;SDS011;6131;56.420;15.548;2024-03-23T09:20:28;7.93;;;1.83;;
12135;SDS011;6131;56.420;15.548;2024-03-23T09:22:54;12.97;;;2.20;;
12135;SDS011;6131;56.420;15.548;2024-03-23T09:25:20;11.90;;;2.60;;
12135;SDS011;6131;56.420;15.548;2024-03-23T09:27:46;8.93;;;1.90;;
12135;SDS011;6131;56.420;15.548;2024-03-23T09:30:13;9.90;;;2.27;;
12135;SDS011;6131;56.420;15.548;2024-03-23T09:32:40;5.07;;;1.50;;
12135;SDS011;6131;56.420;15.548;2024-03-23T09:35:06;4.90;;;1.77;;
12135;SDS011;6131;56.420;15.548;2024-03-23T09:37:32;7.73;;;1.80;;
12135;SDS011;6131;56.420;15.548;2024-03-23T09:39:58;8.63;;;2.07;;
12135;SDS011;6131;56.420;15.548;2024-03-23T09:42:24;9.10;;;2.23;;
12135;SDS011;6131;56.420;15.548;2024-03-23T09:44:50;5.90;;;1.77;;
12135;SDS011;6131;56.420;15.548;2024-03-23T09:47:17;10.10;;;2.00;;
12135;SDS011;6131;56.420;15.548;2024-03-23T09:49:43;9.77;;;2.00;;
12135;SDS011;6131;56.420;15.548;2024-03-23T09:52:10;8.40;;;1.93;;
12135;SDS011;6131;56.420;15.548;2024-03-23T09:54:36;8.50;;;2.00;;
12135;SDS011;6131;56.420;15.548;2024-03-23T09:57:02;9.57;;;2.43;;
12135;SDS011;6131;56.420;15.548;2024-03-23T09:59:29;5.17;;;1.93;;
12135;SDS011;6131;56.420;15.548;2024-03-23T10:01:55;7.93;;;2.53;;
12135;SDS011;6131;56.420;15.548;2024-03-23T10:07:12;9.33;;;2.00;;
12135;SDS011;6131;56.420;15.548;2024-03-23T10:09:38;9.27;;;2.40;;
12135;SDS011;6131;56.420;15.548;2024-03-23T10:12:08;8.17;;;2.60;;
12135;SDS011;6131;56.420;15.548;2024-03-23T10:14:34;8.43;;;1.80;;
12135;SDS011;6131;56.420;15.548;2024-03-23T10:17:14;10.33;;;2.33;;
12135;SDS011;6131;56.420;15.548;2024-03-23T10:19:42;9.40;;;2.07;;
12135;SDS011;6131;56.420;15.548;2024-03-23T10:22:09;8.70;;;2.03;;
12135;SDS011;6131;56.420;15.548;2024-03-23T10:24:35;9.50;;;2.00;;
12135;SDS011;6131;56.420;15.548;2024-03-23T10:27:01;9.07;;;2.00;;
12135;SDS011;6131;56.420;15.548;2024-03-23T10:29:27;8.03;;;1.60;;
12135;SDS011;6131;56.420;15.548;2024-03-23T10:31:53;10.87;;;2.00;;
12135;SDS011;6131;56.420;15.548;2024-03-23T10:34:25;9.73;;;2.43;;
12135;SDS011;6131;56.420;15.548;2024-03-23T10:36:53;10.10;;;2.17;;
12135;SDS011;6131;56.420;15.548;2024-03-23T10:39:20;8.07;;;2.07;;
12135;SDS011;6131;56.420;15.548;2024-03-23T10:41:47;10.57;;;1.73;;
12135;SDS011;6131;56.420;15.548;2024-03-23T10:44:16;11.10;;;1.70;;
12135;SDS011;6131;56.420;15.548;2024-03-23T10:46:42;8.10;;;2.00;;
12135;SDS011;6131;56.420;15.548;2024-03-23T10:49:08;9.60;;;2.13;;
12135;SDS011;6131;56.420;15.548;2024-03-23T10:51:34;7.30;;;1.87;;
12135;SDS011;6131;56.420;15.548;2024-03-23T10:54:01;7.47;;;2.00;;
12135;SDS011;6131;56.420;15.548;2024-03-23T10:56:31;5.33;;;1.50;;
12135;SDS011;6131;56.420;15.548;2024-03-23T10:58:59;9.47;;;1.80;;
12135;SDS011;6131;56.420;15.548;2024-03-23T11:01:28;6.87;;;1.60;;
12135;SDS011;6131;56.420;15.548;2024-03-23T11:03:54;7.77;;;1.70;;
12135;SDS011;6131;56.420;15.548;2024-03-23T11:12:03;6.90;;;1.60;;
12135;SDS011;6131;56.420;15.548;2024-03-23T11:14:43;5.40;;;1.67;;
12135;SDS011;6131;56.420;15.548;2024-03-23T11:17:09;9.70;;;2.00;;
12135;SDS011;6131;56.420;15.548;2024-03-23T11:19:36;6.30;;;1.90;;
12135;SDS011;6131;56.420;15.548;2024-03-23T11:22:02;5.80;;;1.50;;
12135;SDS011;6131;56.420;15.548;2024-03-23T11:24:30;5.47;;;1.43;;
12135;SDS011;6131;56.420;15.548;2024-03-23T11:26:56;8.90;;;1.90;;
12135;SDS011;6131;56.420;15.548;2024-03-23T11:29:25;5.60;;;1.63;;
12135;SDS011;6131;56.420;15.548;2024-03-23T11:31:51;8.63;;;1.77;;
12135;SDS011;6131;56.420;15.548;2024-03-23T11:34:18;6.27;;;1.60;;
12135;SDS011;6131;56.420;15.548;2024-03-23T11:36:44;7.70;;;1.73;;
12135;SDS011;6131;56.420;15.548;2024-03-23T11:39:17;10.03;;;1.67;;
12135;SDS011;6131;56.420;15.548;2024-03-23T11:44:19;6.97;;;1.50;;
12135;SDS011;6131;56.420;15.548;2024-03-23T11:46:45;8.13;;;1.80;;
12135;SDS011;6131;56.420;15.548;2024-03-23T11:49:19;10.60;;;1.60;;
12135;SDS011;6131;56.420;15.548;2024-03-23T11:51:47;7.63;;;1.57;;
12135;SDS011;6131;56.420;15.548;2024-03-23T11:54:13;8.40;;;1.77;;
12135;SDS011;6131;56.420;15.548;2024-03-23T11:56:39;7.33;;;1.87;;
12135;SDS011;6131;56.420;15.548;2024-03-23T11:59:06;7.50;;;1.97;;
12135;SDS011;6131;56.420;15.548;2024-03-23T12:01:32;9.10;;;1.80;;
12135;SDS011;6131;56.420;15.548;2024-03-23T12:03:58;9.43;;;2.37;;
12135;SDS011;6131;56.420;15.548;2024-03-23T12:06:24;6.20;;;1.80;;
12135;SDS011;6131;56.420;15.548;2024-03-23T12:08:50;5.63;;;1.70;;
12135;SDS011;6131;56.420;15.548;2024-03-23T12:11:17;6.43;;;1.47;;
12135;SDS011;6131;56.420;15.548;2024-03-23T12:13:44;9.37;;;2.23;;
12135;SDS011;6131;56.420;15.548;2024-03-23T12:16:20;6.13;;;1.83;;
12135;SDS011;6131;56.420;15.548;2024-03-23T12:18:50;4.87;;;2.20;;
12135;SDS011;6131;56.420;15.548;2024-03-23T12:21:16;6.53;;;1.80;;
12135;SDS011;6131;56.420;15.548;2024-03-23T12:23:42;7.63;;;1.87;;
12135;SDS011;6131;56.420;15.548;2024-03-23T12:26:13;5.23;;;1.37;;
12135;SDS011;6131;56.420;15.548;2024-03-23T12:28:40;6.60;;;1.60;;
12135;SDS011;6131;56.420;15.548;2024-03-23T12:31:06;6.03;;;1.70;;
12135;SDS011;6131;56.420;15.548;2024-03-23T12:33:32;6.23;;;1.57;;
12135;SDS011;6131;56.420;15.548;2024-03-23T12:35:58;6.63;;;1.60;;
12135;SDS011;6131;56.420;15.548;2024-03-23T12:38:24;7.63;;;1.57;;
12135;SDS011;6131;56.420;15.548;2024-03-23T12:40:50;4.27;;;1.47;;
12135;SDS011;6131;56.420;15.548;2024-03-23T12:43:16;5.27;;;1.67;;
12135;SDS011;6131;56.420;15.548;2024-03-23T12:45:46;5.07;;;1.60;;
12135;SDS011;6131;56.420;15.548;2024-03-23T12:48:12;5.23;;;1.50;;
12135;SDS011;6131;56.420;15.548;2024-03-23T12:50:38;4.90;;;1.43;;
12135;SDS011;6131;56.420;15.548;2024-03-23T12:53:04;6.77;;;1.80;;
12135;SDS011;6131;56.420;15.548;2024-03-23T12:55:30;6.17;;;1.60;;
12135;SDS011;6131;56.420;15.548;2024-03-23T12:57:56;7.37;;;1.73;;
12135;SDS011;6131;56.420;15.548;2024-03-23T13:00:22;6.93;;;1.83;;
12135;SDS011;6131;56.420;15.548;2024-03-23T13:02:48;8.93;;;1.87;;
12135;SDS011;6131;56.420;15.548;2024-03-23T13:05:14;5.23;;;1.43;;
12135;SDS011;6131;56.420;15.548;2024-03-23T13:07:40;9.67;;;1.70;;
12135;SDS011;6131;56.420;15.548;2024-03-23T13:10:06;4.43;;;1.50;;
12135;SDS011;6131;56.420;15.548;2024-03-23T13:12:32;4.63;;;1.50;;
12135;SDS011;6131;56.420;15.548;2024-03-23T13:14:59;8.23;;;1.67;;
12135;SDS011;6131;56.420;15.548;2024-03-23T13:17:25;5.30;;;1.90;;
12135;SDS011;6131;56.420;15.548;2024-03-23T13:19:52;3.53;;;1.07;;
12135;SDS011;6131;56.420;15.548;2024-03-23T13:22:18;4.20;;;1.23;;
12135;SDS011;6131;56.420;15.548;2024-03-23T13:24:44;4.17;;;1.20;;
12135;SDS011;6131;56.420;15.548;2024-03-23T13:27:10;3.80;;;1.33;;
12135;SDS011;6131;56.420;15.548;2024-03-23T13:29:36;3.53;;;1.10;;
12135;SDS011;6131;56.420;15.548;2024-03-23T13:32:03;4.30;;;1.20;;
12135;SDS011;6131;56.420;15.548;2024-03-23T13:34:29;3.70;;;1.30;;
12135;SDS011;6131;56.420;15.548;2024-03-23T13:36:55;7.13;;;1.40;;
12135;SDS011;6131;56.420;15.548;2024-03-23T13:39:23;4.73;;;1.20;;
12135;SDS011;6131;56.420;15.548;2024-03-23T13:41:50;4.63;;;1.10;;
12135;SDS011;6131;56.420;15.548;2024-03-23T13:44:16;3.70;;;0.80;;
12135;SDS011;6131;56.420;15.548;2024-03-23T13:46:42;6.47;;;1.50;;
12135;SDS011;6131;56.420;15.548;2024-03-23T13:49:18;3.63;;;1.20;;
12135;SDS011;6131;56.420;15.548;2024-03-23T13:51:46;4.10;;;1.20;;
12135;SDS011;6131;56.420;15.548;2024-03-23T13:54:12;6.30;;;1.67;;
12135;SDS011;6131;56.420;15.548;2024-03-23T13:56:39;3.63;;;1.20;;
12135;SDS011;6131;56.420;15.548;2024-03-23T13:59:05;5.57;;;1.67;;
12135;SDS011;6131;56.420;15.548;2024-03-23T14:01:31;4.37;;;1.37;;
12135;SDS011;6131;56.420;15.548;2024-03-23T14:03:57;7.63;;;1.63;;
12135;SDS011;6131;56.420;15.548;2024-03-23T14:06:23;6.60;;;1.50;;
12135;SDS011;6131;56.420;15.548;2024-03-23T14:08:49;5.47;;;1.63;;
12135;SDS011;6131;56.420;15.548;2024-03-23T14:11:17;6.13;;;1.47;;
12135;SDS011;6131;56.420;15.548;2024-03-23T14:13:43;5.30;;;1.60;;
12135;SDS011;6131;56.420;15.548;2024-03-23T14:16:09;4.90;;;1.63;;
12135;SDS011;6131;56.420;15.548;2024-03-23T14:18:35;4.07;;;1.43;;
12135;SDS011;6131;56.420;15.548;2024-03-23T14:21:02;7.73;;;1.90;;
12135;SDS011;6131;56.420;15.548;2024-03-23T14:23:29;5.53;;;1.83;;
12135;SDS011;6131;56.420;15.548;2024-03-23T14:25:58;4.57;;;1.50;;
12135;SDS011;6131;56.420;15.548;2024-03-23T14:28:24;3.47;;;1.27;;
12135;SDS011;6131;56.420;15.548;2024-03-23T14:30:50;5.47;;;1.20;;
12135;SDS011;6131;56.420;15.548;2024-03-23T14:33:17;6.67;;;1.37;;
12135;SDS011;6131;56.420;15.548;2024-03-23T14:35:43;3.97;;;1.40;;
12135;SDS011;6131;56.420;15.548;2024-03-23T14:38:10;2.93;;;1.07;;
12135;SDS011;6131;56.420;15.548;2024-03-23T14:40:36;3.23;;;1.33;;
12135;SDS011;6131;56.420;15.548;2024-03-23T14:43:02;3.40;;;0.93;;
12135;SDS011;6131;56.420;15.548;2024-03-23T14:45:28;4.03;;;1.10;;
12135;SDS011;6131;56.420;15.548;2024-03-23T14:47:54;3.87;;;1.10;;
12135;SDS011;6131;56.420;15.548;2024-03-23T14:50:23;4.40;;;1.30;;
12135;SDS011;6131;56.420;15.548;2024-03-23T14:52:49;3.77;;;1.10;;
12135;SDS011;6131;56.420;15.548;2024-03-23T14:55:16;4.70;;;1.40;;
12135;SDS011;6131;56.420;15.548;2024-03-23T14:57:42;2.90;;;1.00;;
12135;SDS011;6131;56.420;15.548;2024-03-23T15:00:08;3.60;;;1.00;;
12135;SDS011;6131;56.420;15.548;2024-03-23T15:02:37;4.60;;;1.10;;
12135;SDS011;6131;56.420;15.548;2024-03-23T15:05:04;4.60;;;0.90;;
12135;SDS011;6131;56.420;15.548;2024-03-23T15:07:30;2.77;;;1.00;;
12135;SDS011;6131;56.420;15.548;2024-03-23T15:09:56;3.77;;;1.10;;
12135;SDS011;6131;56.420;15.548;2024-03-23T15:12:22;6.73;;;1.53;;
12135;SDS011;6131;56.420;15.548;2024-03-23T15:14:49;4.57;;;1.20;;
12135;SDS011;6131;56.420;15.548;2024-03-23T15:17:15;2.83;;;1.10;;
12135;SDS011;6131;56.420;15.548;2024-03-23T15:19:41;4.37;;;1.00;;
12135;SDS011;6131;56.420;15.548;2024-03-23T15:22:07;1.80;;;0.80;;
12135;SDS011;6131;56.420;15.548;2024-03-23T15:24:34;4.10;;;0.87;;
12135;SDS011;6131;56.420;15.548;2024-03-23T15:27:01;3.83;;;1.03;;
12135;SDS011;6131;56.420;15.548;2024-03-23T15:29:27;2.67;;;0.73;;
12135;SDS011;6131;56.420;15.548;2024-03-23T15:31:53;2.17;;;0.93;;
12135;SDS011;6131;56.420;15.548;2024-03-23T15:34:20;2.70;;;0.90;;
12135;SDS011;6131;56.420;15.548;2024-03-23T15:36:49;3.80;;;1.13;;
12135;SDS011;6131;56.420;15.548;2024-03-23T15:39:16;4.97;;;1.90;;
12135;SDS011;6131;56.420;15.548;2024-03-23T15:41:45;3.43;;;1.20;;